Time;durP1;ratioP1;P1;durP2;ratioP2;P2;SDS_P1;SDS_P2;PMS_P1;PMS_P2;Temp;Humidity;BMP_temperature;BMP_pressure;BME280_temperature;BME280_humidity;BME280_pressure;Samples;Min_cycle;Max_cycle;Signal;HPM_P1;HPM_P2
2023/09/06 00:01:22;;;;;;;0.00;0.00;;;18.30;94.30;;;;;;5053029;28;20189;-71
2023/09/06 00:03:48;;;;;;;0.00;0.00;;;18.30;94.50;;;;;;5053146;28;20177;-71
2023/09/06 00:06:13;;;;;;;0.00;0.00;;;18.30;94.70;;;;;;5052844;28;20173;-71
2023/09/06 00:08:39;;;;;;;0.05;0.03;;;18.20;94.80;;;;;;5053186;28;20207;-71
2023/09/06 00:11:05;;;;;;;0.00;0.00;;;18.20;95.00;;;;;;5053278;28;20181;-70
2023/09/06 00:13:35;;;;;;;0.00;0.00;;;18.20;95.10;;;;;;5053027;28;20268;-70
2023/09/06 00:16:02;;;;;;;0.25;0.25;;;18.10;95.20;;;;;;5052820;28;20184;-70
2023/09/06 00:18:27;;;;;;;0.00;0.00;;;18.10;95.40;;;;;;5052832;28;20216;-71
2023/09/06 00:20:53;;;;;;;0.00;0.00;;;18.10;95.60;;;;;;5052788;28;20186;-70
2023/09/06 00:23:20;;;;;;;0.00;0.00;;;18.10;95.80;;;;;;5052980;28;20652;-71
2023/09/06 00:25:46;;;;;;;0.00;0.00;;;18.00;95.70;;;;;;5052766;28;20541;-70
2023/09/06 00:28:13;;;;;;;0.00;0.00;;;18.00;95.80;;;;;;5052569;28;20641;-70
2023/09/06 00:30:39;;;;;;;0.10;0.10;;;18.00;95.80;;;;;;5052507;28;20701;-70
2023/09/06 00:33:06;;;;;;;0.10;0.10;;;18.00;96.00;;;;;;5052938;28;20185;-70
2023/09/06 00:35:33;;;;;;;0.00;0.00;;;17.90;96.10;;;;;;5052922;28;20538;-70
2023/09/06 00:38:05;;;;;;;0.08;0.08;;;17.90;96.20;;;;;;5052511;28;20213;-70
2023/09/06 00:40:39;;;;;;;0.00;0.00;;;17.80;96.40;;;;;;5053003;28;20189;-70
2023/09/06 00:43:06;;;;;;;0.00;0.00;;;17.80;96.70;;;;;;5052742;28;20200;-70
2023/09/06 00:45:38;;;;;;;0.00;0.00;;;17.80;96.90;;;;;;5052653;28;20280;-70
2023/09/06 00:48:05;;;;;;;0.00;0.00;;;17.80;97.10;;;;;;5051808;28;20580;-70
2023/09/06 00:50:33;;;;;;;0.00;0.00;;;17.70;97.40;;;;;;5052538;28;20198;-70
2023/09/06 00:52:59;;;;;;;0.00;0.00;;;17.70;97.60;;;;;;5052625;28;20707;-70
2023/09/06 00:55:25;;;;;;;0.00;0.00;;;17.60;97.80;;;;;;5052782;28;20182;-70
2023/09/06 00:57:51;;;;;;;0.00;0.00;;;17.60;97.90;;;;;;5052611;28;20217;-71
2023/09/06 01:00:20;;;;;;;0.25;0.25;;;17.50;98.00;;;;;;5052482;28;20282;-71
2023/09/06 01:02:47;;;;;;;0.00;0.00;;;17.50;98.20;;;;;;5052711;28;20320;-70
2023/09/06 01:05:17;;;;;;;0.00;0.00;;;17.40;98.70;;;;;;5052334;28;20200;-71
2023/09/06 01:07:47;;;;;;;0.00;0.00;;;17.40;98.60;;;;;;5052194;28;20473;-70
2023/09/06 01:10:13;;;;;;;0.00;0.00;;;17.30;98.70;;;;;;5052037;28;20181;-70
2023/09/06 01:12:38;;;;;;;0.35;0.35;;;17.20;98.90;;;;;;5052419;28;20284;-70
2023/09/06 01:15:05;;;;;;;0.00;0.00;;;17.20;99.10;;;;;;5052108;28;20284;-70
2023/09/06 01:17:32;;;;;;;0.00;0.00;;;17.10;99.30;;;;;;5051556;28;20566;-71
2023/09/06 01:20:17;;;;;;;0.00;0.00;;;17.10;99.50;;;;;;5048745;28;20173;-70
2023/09/06 01:23:11;;;;;;;0.00;0.00;;;17.10;99.80;;;;;;5051212;28;20216;-70
2023/09/06 01:25:37;;;;;;;0.00;0.00;;;17.00;99.90;;;;;;5051952;28;20181;-70
2023/09/06 01:28:03;;;;;;;0.00;0.00;;;17.00;99.90;;;;;;5051686;28;20196;-70
2023/09/06 01:30:29;;;;;;;0.00;0.00;;;16.90;99.90;;;;;;5051638;28;20249;-70
2023/09/06 01:32:55;;;;;;;0.00;0.00;;;16.90;99.90;;;;;;5051785;28;20648;-71
2023/09/06 01:35:21;;;;;;;0.00;0.00;;;16.90;99.90;;;;;;5051582;28;20185;-71
2023/09/06 01:37:50;;;;;;;0.00;0.00;;;16.80;99.90;;;;;;5051640;28;20232;-71
2023/09/06 01:40:19;;;;;;;0.00;0.00;;;16.80;99.90;;;;;;5051345;28;20672;-71
2023/09/06 01:42:46;;;;;;;0.00;0.00;;;16.70;99.90;;;;;;5051705;28;20220;-71
2023/09/06 01:45:17;;;;;;;0.00;0.00;;;16.70;99.90;;;;;;5051355;28;20248;-71
2023/09/06 01:47:43;;;;;;;0.00;0.00;;;16.60;99.90;;;;;;5051515;28;20276;-71
2023/09/06 01:50:09;;;;;;;0.00;0.00;;;16.60;99.90;;;;;;5050816;28;20178;-71
2023/09/06 01:52:36;;;;;;;0.00;0.00;;;16.60;99.90;;;;;;5051328;28;20183;-71
2023/09/06 01:55:05;;;;;;;0.00;0.00;;;16.60;99.90;;;;;;5050783;28;20169;-71
2023/09/06 01:57:30;;;;;;;0.00;0.00;;;16.50;99.90;;;;;;5050869;28;20205;-71
2023/09/06 01:59:56;;;;;;;0.00;0.00;;;16.50;99.90;;;;;;5051773;28;20208;-71
2023/09/06 02:02:21;;;;;;;0.00;0.00;;;16.40;99.90;;;;;;5048830;28;20173;-72
2023/09/06 02:04:47;;;;;;;0.00;0.00;;;16.40;99.90;;;;;;5051121;28;20166;-72
2023/09/06 02:07:13;;;;;;;0.00;0.00;;;16.30;99.90;;;;;;5051307;28;20547;-71
2023/09/06 02:09:39;;;;;;;0.00;0.00;;;16.40;99.90;;;;;;5051292;28;20212;-72
2023/09/06 02:12:05;;;;;;;0.00;0.00;;;16.30;99.90;;;;;;5051019;28;20668;-72
2023/09/06 02:14:30;;;;;;;0.00;0.00;;;16.30;99.90;;;;;;5049891;28;20245;-72
2023/09/06 02:16:56;;;;;;;0.00;0.00;;;16.30;99.90;;;;;;5051073;28;20559;-70
2023/09/06 02:19:22;;;;;;;0.00;0.00;;;16.20;99.90;;;;;;5051241;28;20338;-72
2023/09/06 02:21:47;;;;;;;0.00;0.00;;;16.20;99.90;;;;;;5050920;28;20272;-72
2023/09/06 02:24:13;;;;;;;0.00;0.00;;;16.20;99.90;;;;;;5050847;28;20188;-71
2023/09/06 02:26:38;;;;;;;0.00;0.00;;;16.20;99.90;;;;;;5050922;28;20173;-71
2023/09/06 02:29:04;;;;;;;0.00;0.00;;;16.20;99.90;;;;;;5051162;28;20506;-72
2023/09/06 02:31:30;;;;;;;0.00;0.00;;;16.20;99.90;;;;;;5050474;28;20267;-72
2023/09/06 02:33:55;;;;;;;0.00;0.00;;;16.10;99.90;;;;;;5051034;28;20169;-72
2023/09/06 02:36:21;;;;;;;0.00;0.00;;;16.10;99.90;;;;;;5051149;28;20173;-72
2023/09/06 02:38:47;;;;;;;0.00;0.00;;;16.10;99.90;;;;;;5050912;28;20263;-72
2023/09/06 02:41:13;;;;;;;0.00;0.00;;;16.10;99.90;;;;;;5050879;28;20645;-71
2023/09/06 02:43:38;;;;;;;0.00;0.00;;;16.10;99.90;;;;;;5052046;28;20235;-72
2023/09/06 02:46:04;;;;;;;0.00;0.00;;;16.10;99.90;;;;;;5051021;28;20166;-72
2023/09/06 02:48:29;;;;;;;0.00;0.00;;;16.00;99.90;;;;;;5050827;28;20184;-72
2023/09/06 02:50:58;;;;;;;0.20;0.20;;;15.90;99.90;;;;;;5050752;28;20227;-72
2023/09/06 02:53:26;;;;;;;0.00;0.00;;;15.90;99.90;;;;;;5050983;28;20177;-72
2023/09/06 02:55:53;;;;;;;0.00;0.00;;;15.80;99.90;;;;;;5051049;28;20181;-72
2023/09/06 02:58:25;;;;;;;0.00;0.00;;;15.80;99.90;;;;;;5050375;28;20221;-72
2023/09/06 03:00:57;;;;;;;0.00;0.00;;;15.80;99.90;;;;;;5043964;28;20181;-72
2023/09/06 03:03:26;;;;;;;0.00;0.00;;;15.80;99.90;;;;;;5050517;28;20208;-72
2023/09/06 03:05:56;;;;;;;0.00;0.00;;;15.70;99.90;;;;;;5050309;28;20640;-72
2023/09/06 03:08:25;;;;;;;0.00;0.00;;;15.70;99.90;;;;;;5050421;28;20261;-72
2023/09/06 03:10:52;;;;;;;0.00;0.00;;;15.70;99.90;;;;;;5052559;28;20540;-72
2023/09/06 03:13:20;;;;;;;0.00;0.00;;;15.70;99.90;;;;;;5054622;28;20664;-72
2023/09/06 03:15:45;;;;;;;0.00;0.00;;;15.70;99.90;;;;;;5054161;28;20185;-72
2023/09/06 03:18:11;;;;;;;0.00;0.00;;;15.60;99.90;;;;;;5053602;28;20205;-72
2023/09/06 03:20:47;;;;;;;0.00;0.00;;;15.60;99.90;;;;;;5054355;28;20273;-72
2023/09/06 03:23:21;;;;;;;0.00;0.00;;;15.50;99.90;;;;;;5053711;28;20177;-72
2023/09/06 03:25:48;;;;;;;0.00;0.00;;;15.50;99.90;;;;;;5053858;28;20193;-69
2023/09/06 03:28:15;;;;;;;0.00;0.00;;;15.40;99.90;;;;;;5054359;28;20189;-75
2023/09/06 03:30:41;;;;;;;0.00;0.00;;;15.40;99.90;;;;;;5053672;28;20228;-71
2023/09/06 03:33:07;;;;;;;0.00;0.00;;;15.30;99.90;;;;;;5054345;28;20195;-70
2023/09/06 03:35:33;;;;;;;0.00;0.00;;;15.30;99.90;;;;;;5054591;28;20170;-71
2023/09/06 03:37:59;;;;;;;0.00;0.00;;;15.20;99.90;;;;;;5054094;28;20213;-70
2023/09/06 03:40:25;;;;;;;0.20;0.20;;;15.20;99.90;;;;;;5054010;28;20306;-71
2023/09/06 03:42:54;;;;;;;0.00;0.00;;;15.10;99.90;;;;;;5053393;28;20188;-69
2023/09/06 03:45:21;;;;;;;0.00;0.00;;;15.00;99.90;;;;;;5053652;28;20181;-73
2023/09/06 03:47:51;;;;;;;0.22;0.20;;;15.00;99.90;;;;;;5053695;28;20185;-72
2023/09/06 03:50:17;;;;;;;0.08;0.08;;;15.00;99.90;;;;;;5053670;28;20205;-72
2023/09/06 03:52:43;;;;;;;0.00;0.00;;;15.00;99.90;;;;;;5053841;28;20181;-69
2023/09/06 03:55:10;;;;;;;0.00;0.00;;;14.90;99.90;;;;;;5053743;28;20208;-70
2023/09/06 03:57:37;;;;;;;0.00;0.00;;;14.90;99.90;;;;;;5054105;28;20260;-69
2023/09/06 04:03:05;;;;;;;0.00;0.00;;;14.80;99.90;;;;;;5030995;28;20192;-71
2023/09/06 04:05:32;;;;;;;0.00;0.00;;;14.80;99.90;;;;;;5049069;28;20194;-75
2023/09/06 04:07:59;;;;;;;0.00;0.00;;;14.70;99.90;;;;;;5052630;28;20244;-72
2023/09/06 04:10:35;;;;;;;0.00;0.00;;;14.70;99.90;;;;;;5053719;28;20169;-72
2023/09/06 04:13:01;;;;;;;0.00;0.00;;;14.60;99.90;;;;;;5052939;28;20695;-71
2023/09/06 04:15:28;;;;;;;0.20;0.20;;;14.60;99.90;;;;;;5053783;28;20189;-69
2023/09/06 04:17:58;;;;;;;0.00;0.00;;;14.60;99.90;;;;;;5053255;28;20704;-73
2023/09/06 04:20:31;;;;;;;0.00;0.00;;;14.60;99.90;;;;;;5052048;28;20216;-71
2023/09/06 04:22:57;;;;;;;0.10;0.10;;;14.60;99.90;;;;;;5052435;28;20169;-69
2023/09/06 04:25:26;;;;;;;0.00;0.00;;;14.60;99.90;;;;;;5051950;28;20177;-70
2023/09/06 04:27:55;;;;;;;0.00;0.00;;;14.60;99.90;;;;;;5053464;28;20193;-70
2023/09/06 04:30:28;;;;;;;0.00;0.00;;;14.60;99.90;;;;;;5053251;28;20244;-70
2023/09/06 04:32:54;;;;;;;0.00;0.00;;;14.60;99.90;;;;;;5053227;28;20705;-70
2023/09/06 04:35:22;;;;;;;0.30;0.15;;;14.60;99.90;;;;;;5053319;28;20327;-70
2023/09/06 04:37:47;;;;;;;0.00;0.00;;;14.70;99.90;;;;;;5053209;28;20209;-70
2023/09/06 04:40:13;;;;;;;0.00;0.00;;;14.60;99.90;;;;;;5052966;28;20188;-69
2023/09/06 04:42:41;;;;;;;0.00;0.00;;;14.60;99.90;;;;;;5053012;28;20207;-70
2023/09/06 04:45:10;;;;;;;0.00;0.00;;;14.60;99.90;;;;;;5053115;28;20209;-70
2023/09/06 04:47:39;;;;;;;0.00;0.00;;;14.60;99.90;;;;;;5053136;28;20231;-70
2023/09/06 04:50:05;;;;;;;0.00;0.00;;;14.60;99.90;;;;;;5052939;28;20190;-70
2023/09/06 04:52:36;;;;;;;0.00;0.00;;;14.60;99.90;;;;;;5052749;28;20197;-70
2023/09/06 04:55:02;;;;;;;0.00;0.00;;;14.60;99.90;;;;;;5052919;28;20177;-70
2023/09/06 04:57:28;;;;;;;0.35;0.35;;;14.60;99.90;;;;;;5052898;28;20209;-70
2023/09/06 04:59:53;;;;;;;0.00;0.00;;;14.60;99.90;;;;;;5052705;28;20265;-71
2023/09/06 05:02:19;;;;;;;0.00;0.00;;;14.60;99.90;;;;;;5052827;28;20181;-71
2023/09/06 05:04:44;;;;;;;0.00;0.00;;;14.60;99.90;;;;;;5052782;28;20173;-70
2023/09/06 05:07:10;;;;;;;0.00;0.00;;;14.60;99.90;;;;;;5052747;28;20530;-70
2023/09/06 05:09:36;;;;;;;0.00;0.00;;;14.60;99.90;;;;;;5052913;28;20272;-70
2023/09/06 05:12:03;;;;;;;0.00;0.00;;;14.60;99.90;;;;;;5052629;28;20205;-69
2023/09/06 05:14:29;;;;;;;0.00;0.00;;;14.60;99.90;;;;;;5052634;28;20246;-70
2023/09/06 05:16:55;;;;;;;0.35;0.35;;;14.60;99.90;;;;;;5052472;28;20220;-70
2023/09/06 05:19:25;;;;;;;0.00;0.00;;;14.60;99.90;;;;;;5052521;28;20209;-70
2023/09/06 05:21:51;;;;;;;0.00;0.00;;;14.60;99.90;;;;;;5052512;28;20631;-70
2023/09/06 05:24:16;;;;;;;0.10;0.10;;;14.60;99.90;;;;;;5052567;28;20277;-70
2023/09/06 05:26:42;;;;;;;0.15;0.15;;;14.60;99.90;;;;;;5052508;28;20181;-70
2023/09/06 05:29:07;;;;;;;0.00;0.00;;;14.70;99.90;;;;;;5052447;28;20215;-70
2023/09/06 05:31:33;;;;;;;0.00;0.00;;;14.70;99.90;;;;;;5052106;28;20708;-70
2023/09/06 05:33:58;;;;;;;0.00;0.00;;;14.70;99.90;;;;;;5051929;28;20185;-69
2023/09/06 05:36:24;;;;;;;0.00;0.00;;;14.70;99.90;;;;;;5052226;28;20181;-70
2023/09/06 05:38:49;;;;;;;0.00;0.00;;;14.80;99.90;;;;;;5052177;28;20845;-70
2023/09/06 05:41:15;;;;;;;0.10;0.10;;;14.90;99.90;;;;;;5052083;28;20919;-70
2023/09/06 05:43:41;;;;;;;0.00;0.00;;;15.00;99.90;;;;;;5052312;28;20686;-70
2023/09/06 05:46:06;;;;;;;0.00;0.00;;;15.00;99.90;;;;;;5052262;28;20180;-69
2023/09/06 05:48:32;;;;;;;0.00;0.00;;;15.10;99.90;;;;;;5052131;28;20663;-70
2023/09/06 05:50:58;;;;;;;0.00;0.00;;;15.10;99.90;;;;;;5051881;28;20177;-70
2023/09/06 05:53:26;;;;;;;0.00;0.00;;;15.30;99.90;;;;;;5051929;28;20177;-70
2023/09/06 05:55:51;;;;;;;0.00;0.00;;;15.40;99.90;;;;;;5051883;28;20181;-70
2023/09/06 05:58:17;;;;;;;0.00;0.00;;;15.50;99.90;;;;;;5051782;28;20633;-70
2023/09/06 06:00:43;;;;;;;0.05;0.05;;;15.80;99.90;;;;;;5051955;28;20264;-70
2023/09/06 06:03:10;;;;;;;0.00;0.00;;;16.10;99.90;;;;;;5051781;28;20181;-70
2023/09/06 06:05:36;;;;;;;0.05;0.05;;;16.50;99.90;;;;;;5051844;28;20185;-70
2023/09/06 06:08:01;;;;;;;0.00;0.00;;;17.00;99.90;;;;;;5051841;28;20173;-69
2023/09/06 06:10:34;;;;;;;0.00;0.00;;;17.50;99.90;;;;;;5051629;28;20174;-69
2023/09/06 06:12:59;;;;;;;0.00;0.00;;;18.00;99.90;;;;;;5051854;28;20207;-69
2023/09/06 06:15:25;;;;;;;0.00;0.00;;;18.50;99.90;;;;;;5051684;28;20661;-69
2023/09/06 06:17:51;;;;;;;0.00;0.00;;;19.10;99.90;;;;;;5051322;28;20213;-69
2023/09/06 06:20:17;;;;;;;0.00;0.00;;;19.60;99.90;;;;;;5051572;28;20197;-70
2023/09/06 06:22:43;;;;;;;0.00;0.00;;;20.20;99.90;;;;;;5051583;28;20176;-70
2023/09/06 06:25:13;;;;;;;0.00;0.00;;;20.80;99.90;;;;;;5051425;28;20174;-70
2023/09/06 06:27:39;;;;;;;0.00;0.00;;;21.30;99.30;;;;;;5051276;28;20568;-70
2023/09/06 06:30:06;;;;;;;0.00;0.00;;;21.70;97.70;;;;;;5051027;28;20227;-70
2023/09/06 06:32:34;;;;;;;0.00;0.00;;;22.00;97.00;;;;;;5051200;28;20730;-69
2023/09/06 06:35:06;;;;;;;0.00;0.00;;;22.30;96.00;;;;;;5051315;28;20582;-69
2023/09/06 06:37:35;;;;;;;0.00;0.00;;;22.40;95.80;;;;;;5051108;28;20274;-70
2023/09/06 06:40:00;;;;;;;0.00;0.00;;;22.60;95.50;;;;;;5051208;28;20212;-70
2023/09/06 06:42:27;;;;;;;0.00;0.00;;;23.00;94.80;;;;;;5051194;28;20208;-70
2023/09/06 06:44:52;;;;;;;0.00;0.00;;;23.40;94.00;;;;;;5050216;28;20197;-70
2023/09/06 06:47:18;;;;;;;0.15;0.10;;;23.70;93.50;;;;;;5051034;28;20628;-70
2023/09/06 06:49:43;;;;;;;0.00;0.00;;;24.20;93.10;;;;;;5052648;28;20533;-69
2023/09/06 06:52:09;;;;;;;0.00;0.00;;;24.60;91.80;;;;;;5050976;28;20181;-69
2023/09/06 06:54:34;;;;;;;0.00;0.00;;;24.90;90.90;;;;;;5050872;28;20176;-69
2023/09/06 06:57:00;;;;;;;0.00;0.00;;;25.00;90.70;;;;;;5050844;28;20181;-70
2023/09/06 06:59:27;;;;;;;0.00;0.00;;;25.30;90.10;;;;;;5050930;28;20184;-69
2023/09/06 07:01:52;;;;;;;0.00;0.00;;;25.60;89.50;;;;;;5050911;28;20697;-69
2023/09/06 07:04:18;;;;;;;0.13;0.10;;;25.90;87.40;;;;;;5050861;28;20263;-69
2023/09/06 07:06:44;;;;;;;0.00;0.00;;;26.40;85.00;;;;;;5050927;28;20208;-69
2023/09/06 07:09:10;;;;;;;0.00;0.00;;;26.80;82.50;;;;;;5050731;28;20268;-69
2023/09/06 07:11:37;;;;;;;0.00;0.00;;;27.10;79.80;;;;;;5050957;28;20279;-68
2023/09/06 07:14:02;;;;;;;0.00;0.00;;;27.30;78.90;;;;;;5050808;28;20179;-68
2023/09/06 07:16:28;;;;;;;0.00;0.00;;;27.40;78.20;;;;;;5050722;28;20181;-67
2023/09/06 07:18:53;;;;;;;0.00;0.00;;;27.60;77.10;;;;;;5050536;28;20612;-67
2023/09/06 07:21:19;;;;;;;0.00;0.00;;;27.80;75.80;;;;;;5050709;28;20570;-67
2023/09/06 07:23:45;;;;;;;0.00;0.00;;;28.00;76.70;;;;;;5050779;28;20180;-67
2023/09/06 07:26:11;;;;;;;0.00;0.00;;;28.30;71.80;;;;;;5050496;28;20596;-67
2023/09/06 07:28:42;;;;;;;0.00;0.00;;;28.20;72.50;;;;;;5049465;28;20193;-67
2023/09/06 07:31:08;;;;;;;0.00;0.00;;;28.30;72.70;;;;;;5050450;28;20225;-67
2023/09/06 07:33:34;;;;;;;0.00;0.00;;;28.60;72.00;;;;;;5050528;28;20172;-67
2023/09/06 07:36:00;;;;;;;0.10;0.10;;;28.90;70.80;;;;;;5050613;28;20234;-67
2023/09/06 07:38:26;;;;;;;0.10;0.10;;;29.20;68.20;;;;;;5050699;28;20213;-68
2023/09/06 07:40:59;;;;;;;1.13;0.10;;;29.30;69.40;;;;;;5050614;28;20264;-68
2023/09/06 07:43:29;;;;;;;0.00;0.00;;;29.50;67.60;;;;;;5050558;28;20189;-67
2023/09/06 07:45:56;;;;;;;0.00;0.00;;;29.70;66.80;;;;;;5050461;28;20637;-67
2023/09/06 07:48:23;;;;;;;0.00;0.00;;;29.90;67.70;;;;;;5050532;28;20667;-67
2023/09/06 07:50:50;;;;;;;0.00;0.00;;;30.20;63.40;;;;;;5050595;28;20641;-68
2023/09/06 07:53:15;;;;;;;0.13;0.13;;;30.10;62.30;;;;;;5050543;28;20174;-67
2023/09/06 07:55:44;;;;;;;0.40;0.32;;;29.90;62.20;;;;;;5051340;28;20179;-67
2023/09/06 07:58:10;;;;;;;0.00;0.00;;;29.80;62.50;;;;;;5054173;28;20371;-67
2023/09/06 08:00:36;;;;;;;0.00;0.00;;;29.70;63.30;;;;;;5054340;28;20276;-68
2023/09/06 08:03:04;;;;;;;0.00;0.00;;;29.80;62.80;;;;;;5054106;28;20561;-68
2023/09/06 08:05:35;;;;;;;0.00;0.00;;;29.90;61.60;;;;;;5054200;28;20630;-68
2023/09/06 08:08:01;;;;;;;0.08;0.00;;;29.90;61.20;;;;;;5054124;28;20666;-67
2023/09/06 08:10:27;;;;;;;0.00;0.00;;;29.80;61.10;;;;;;5053977;28;20174;-67
2023/09/06 08:12:52;;;;;;;0.00;0.00;;;29.60;61.20;;;;;;5053968;28;20178;-68
2023/09/06 08:15:18;;;;;;;0.00;0.00;;;29.70;62.70;;;;;;5053962;28;20238;-68
2023/09/06 08:17:47;;;;;;;0.10;0.10;;;30.00;62.20;;;;;;5053880;28;20214;-68
2023/09/06 08:20:16;;;;;;;0.00;0.00;;;30.30;60.10;;;;;;5053674;28;20181;-68
2023/09/06 08:22:42;;;;;;;0.10;0.10;;;30.50;60.40;;;;;;5053808;28;20178;-68
2023/09/06 08:25:08;;;;;;;0.00;0.00;;;30.80;60.00;;;;;;5053636;28;20571;-68
2023/09/06 08:27:34;;;;;;;0.00;0.00;;;31.00;60.20;;;;;;5053658;28;20161;-68
2023/09/06 08:29:59;;;;;;;0.00;0.00;;;31.20;58.80;;;;;;5053469;28;20182;-68
2023/09/06 08:32:25;;;;;;;0.00;0.00;;;31.30;57.80;;;;;;5053683;28;20177;-68
2023/09/06 08:34:51;;;;;;;0.00;0.00;;;31.30;57.20;;;;;;5053514;28;20201;-69
2023/09/06 08:37:16;;;;;;;0.00;0.00;;;31.10;57.20;;;;;;5053373;28;20582;-69
2023/09/06 08:39:42;;;;;;;0.65;0.10;;;30.80;57.80;;;;;;5053437;28;20190;-70
2023/09/06 08:42:07;;;;;;;0.00;0.00;;;30.70;58.20;;;;;;5053242;28;20683;-68
2023/09/06 08:44:35;;;;;;;0.00;0.00;;;30.60;58.20;;;;;;5053167;28;20549;-68
2023/09/06 08:47:07;;;;;;;0.00;0.00;;;30.60;58.60;;;;;;5053249;28;20168;-68
2023/09/06 08:49:33;;;;;;;0.10;0.10;;;30.80;58.30;;;;;;5053135;28;20268;-68
2023/09/06 08:52:00;;;;;;;0.00;0.00;;;30.80;58.20;;;;;;5053068;28;20546;-68
2023/09/06 08:54:27;;;;;;;0.00;0.00;;;30.90;57.60;;;;;;5053160;28;20192;-68
2023/09/06 08:56:53;;;;;;;0.00;0.00;;;30.70;57.80;;;;;;5053016;28;20177;-68
2023/09/06 08:59:22;;;;;;;0.10;0.10;;;30.60;57.70;;;;;;5052965;28;20728;-68
2023/09/06 09:01:47;;;;;;;0.10;0.00;;;30.70;57.90;;;;;;5052913;28;20170;-68
2023/09/06 09:04:13;;;;;;;0.00;0.00;;;30.80;58.70;;;;;;5052759;28;20192;-68
2023/09/06 09:06:45;;;;;;;0.20;0.20;;;31.00;60.10;;;;;;5052740;28;20173;-68
2023/09/06 09:09:19;;;;;;;0.00;0.00;;;31.00;56.00;;;;;;5052197;28;20189;-68
2023/09/06 09:11:45;;;;;;;0.00;0.00;;;30.60;56.20;;;;;;5051721;28;20235;-68
2023/09/06 09:14:27;;;;;;;0.00;0.00;;;30.50;57.00;;;;;;5052618;28;20193;-68
2023/09/06 09:16:59;;;;;;;0.00;0.00;;;30.40;56.40;;;;;;5052750;28;20177;-68
2023/09/06 09:19:25;;;;;;;0.10;0.10;;;30.00;56.00;;;;;;5052593;28;20276;-68
2023/09/06 09:21:52;;;;;;;0.00;0.00;;;29.70;56.70;;;;;;5052478;28;20227;-68
2023/09/06 09:24:28;;;;;;;0.10;0.00;;;29.60;57.80;;;;;;5052453;28;20185;-68
2023/09/06 09:26:56;;;;;;;0.10;0.10;;;29.60;58.50;;;;;;5052398;28;20579;-68
2023/09/06 09:29:27;;;;;;;0.00;0.00;;;29.60;57.90;;;;;;5052379;28;20260;-68
2023/09/06 09:31:53;;;;;;;0.00;0.00;;;29.60;58.20;;;;;;5052164;28;20320;-68
2023/09/06 09:34:18;;;;;;;0.00;0.00;;;29.50;57.70;;;;;;5052286;28;20256;-68
2023/09/06 09:36:51;;;;;;;0.00;0.00;;;29.40;57.80;;;;;;5052286;28;20188;-68
2023/09/06 09:39:18;;;;;;;0.00;0.00;;;29.30;57.60;;;;;;5052166;28;20694;-68
2023/09/06 09:41:44;;;;;;;0.05;0.05;;;29.20;58.10;;;;;;5052177;28;20216;-68
2023/09/06 09:44:16;;;;;;;0.00;0.00;;;29.30;58.60;;;;;;5052041;28;20582;-69
2023/09/06 09:46:43;;;;;;;0.00;0.00;;;29.30;58.00;;;;;;5051929;28;20166;-68
2023/09/06 09:49:10;;;;;;;0.00;0.00;;;29.20;58.90;;;;;;5051808;28;20268;-68
2023/09/06 09:51:37;;;;;;;0.17;0.17;;;29.20;59.00;;;;;;5051973;28;20223;-69
2023/09/06 09:54:06;;;;;;;1.75;0.10;;;28.90;59.70;;;;;;5051773;28;20165;-68
2023/09/06 09:56:37;;;;;;;0.00;0.00;;;29.00;61.60;;;;;;5051759;28;20710;-68
2023/09/06 09:59:04;;;;;;;0.10;0.10;;;29.10;59.70;;;;;;5051706;28;20259;-68
2023/09/06 10:01:31;;;;;;;0.00;0.00;;;29.00;60.20;;;;;;5051846;28;20185;-69
2023/09/06 10:04:00;;;;;;;0.00;0.00;;;29.00;60.90;;;;;;5051834;28;20548;-68
2023/09/06 10:06:27;;;;;;;0.00;0.00;;;28.90;59.70;;;;;;5051903;28;20204;-69
2023/09/06 10:08:59;;;;;;;0.00;0.00;;;28.90;60.40;;;;;;5051600;28;20638;-68
2023/09/06 10:11:26;;;;;;;0.00;0.00;;;29.00;60.70;;;;;;5051835;28;20257;-69
2023/09/06 10:13:52;;;;;;;0.00;0.00;;;29.10;60.70;;;;;;5051550;28;20173;-69
2023/09/06 10:16:21;;;;;;;0.00;0.00;;;29.10;61.00;;;;;;5051552;28;20185;-69
2023/09/06 10:18:47;;;;;;;0.88;0.00;;;29.20;62.10;;;;;;5051423;28;20217;-69
2023/09/06 10:21:14;;;;;;;0.00;0.00;;;29.30;60.60;;;;;;5051251;28;20247;-69
2023/09/06 10:23:41;;;;;;;0.00;0.00;;;29.60;60.60;;;;;;5051537;28;20326;-68
2023/09/06 10:26:07;;;;;;;0.00;0.00;;;29.50;61.10;;;;;;5051450;28;20256;-68
2023/09/06 10:28:33;;;;;;;0.10;0.10;;;29.70;61.00;;;;;;5051340;28;20323;-69
2023/09/06 10:31:09;;;;;;;0.00;0.00;;;29.90;61.10;;;;;;5051081;28;20263;-69
2023/09/06 10:33:38;;;;;;;0.05;0.05;;;30.00;60.50;;;;;;5051233;28;20180;-68
2023/09/06 10:36:14;;;;;;;0.00;0.00;;;29.90;60.40;;;;;;5051260;28;20173;-68
2023/09/06 10:38:52;;;;;;;0.00;0.00;;;30.00;60.10;;;;;;5051292;28;20209;-69
2023/09/06 10:41:20;;;;;;;0.00;0.00;;;30.00;60.50;;;;;;5051092;28;20169;-69
2023/09/06 10:43:57;;;;;;;0.30;0.30;;;30.20;60.60;;;;;;5051167;28;20544;-70
2023/09/06 10:46:26;;;;;;;0.10;0.08;;;30.40;60.40;;;;;;5051033;28;20640;-70
2023/09/06 10:49:13;;;;;;;0.25;0.25;;;30.50;59.80;;;;;;5050849;28;20188;-70
2023/09/06 10:52:04;;;;;;;0.00;0.00;;;30.70;59.90;;;;;;5051065;28;20661;-70
2023/09/06 10:54:44;;;;;;;0.00;0.00;;;30.90;60.00;;;;;;5051040;28;20231;-70
2023/09/06 10:57:18;;;;;;;0.10;0.10;;;31.00;58.90;;;;;;5050781;28;20711;-70
2023/09/06 10:59:55;;;;;;;0.00;0.00;;;31.00;59.00;;;;;;5051039;28;20585;-70
2023/09/06 11:02:25;;;;;;;0.00;0.00;;;31.30;59.20;;;;;;5050951;28;20216;-70
2023/09/06 11:05:05;;;;;;;0.00;0.00;;;31.20;58.30;;;;;;5050785;28;20185;-70
2023/09/06 11:07:57;;;;;;;0.28;0.28;;;31.10;58.40;;;;;;5050765;28;20189;-68
2023/09/06 11:10:23;;;;;;;0.00;0.00;;;30.90;58.10;;;;;;5049644;28;20669;-68
2023/09/06 11:12:48;;;;;;;0.00;0.00;;;30.90;58.50;;;;;;5050828;28;20300;-68
2023/09/06 11:15:14;;;;;;;0.00;0.00;;;30.90;58.10;;;;;;5049519;28;20202;-68
2023/09/06 11:17:40;;;;;;;0.03;0.03;;;30.90;58.50;;;;;;5050569;28;20673;-68
2023/09/06 11:20:13;;;;;;;0.00;0.00;;;30.90;58.30;;;;;;5050711;28;20178;-68
2023/09/06 11:22:52;;;;;;;0.10;0.10;;;31.10;58.80;;;;;;5050789;28;20173;-68
2023/09/06 11:25:23;;;;;;;0.10;0.00;;;31.10;58.70;;;;;;5050673;28;20243;-68
2023/09/06 11:27:49;;;;;;;0.10;0.10;;;31.10;58.70;;;;;;5050654;28;20200;-68
2023/09/06 11:30:18;;;;;;;0.00;0.00;;;31.10;58.60;;;;;;5050357;28;20586;-68
2023/09/06 11:32:45;;;;;;;0.10;0.10;;;30.90;58.10;;;;;;5054672;28;20260;-68
2023/09/06 11:35:11;;;;;;;0.00;0.00;;;30.90;58.70;;;;;;5054292;28;20669;-67
2023/09/06 11:37:50;;;;;;;0.00;0.00;;;31.00;58.80;;;;;;5054560;28;20209;-68
2023/09/06 11:40:20;;;;;;;0.00;0.00;;;31.00;57.70;;;;;;5054356;28;20181;-67
2023/09/06 11:42:52;;;;;;;0.00;0.00;;;31.10;58.20;;;;;;5054467;28;20177;-68
2023/09/06 11:45:20;;;;;;;0.10;0.10;;;31.10;57.70;;;;;;5054309;28;20181;-68
2023/09/06 11:47:46;;;;;;;0.00;0.00;;;31.00;57.40;;;;;;5054393;28;20260;-68
2023/09/06 11:50:15;;;;;;;0.00;0.00;;;31.10;58.20;;;;;;5054041;28;20178;-68
2023/09/06 11:52:48;;;;;;;0.00;0.00;;;31.00;58.40;;;;;;5054271;28;20185;-68
2023/09/06 11:55:18;;;;;;;0.10;0.08;;;31.20;57.60;;;;;;5054061;28;20174;-67
2023/09/06 11:57:52;;;;;;;0.00;0.00;;;31.20;57.20;;;;;;5054039;28;20580;-67
2023/09/06 12:00:28;;;;;;;0.00;0.00;;;31.00;57.00;;;;;;5054122;28;20185;-68
2023/09/06 12:03:01;;;;;;;0.00;0.00;;;30.90;57.30;;;;;;5054080;28;20165;-67
2023/09/06 12:05:27;;;;;;;0.00;0.00;;;31.00;58.00;;;;;;5053959;28;20173;-70
2023/09/06 12:07:56;;;;;;;0.00;0.00;;;31.00;56.90;;;;;;5053870;28;20197;-70
2023/09/06 12:10:23;;;;;;;0.47;0.10;;;31.00;57.30;;;;;;5054035;28;20272;-70
2023/09/06 12:12:49;;;;;;;0.00;0.00;;;31.00;57.00;;;;;;5054026;28;20173;-70
2023/09/06 12:15:19;;;;;;;0.00;0.00;;;30.70;56.70;;;;;;5053722;28;20188;-70
2023/09/06 12:17:49;;;;;;;0.00;0.00;;;30.70;57.00;;;;;;5053883;28;20263;-70
2023/09/06 12:20:24;;;;;;;0.00;0.00;;;30.60;57.00;;;;;;5053774;28;20174;-69
2023/09/06 12:22:51;;;;;;;0.00;0.00;;;30.60;57.10;;;;;;5053786;28;20173;-70
2023/09/06 12:25:18;;;;;;;0.00;0.00;;;30.60;56.90;;;;;;5053766;28;20209;-70
2023/09/06 12:27:45;;;;;;;0.00;0.00;;;30.50;56.80;;;;;;5053739;28;20177;-70
2023/09/06 12:30:11;;;;;;;0.10;0.10;;;30.50;57.00;;;;;;5053196;28;20201;-70
2023/09/06 12:32:39;;;;;;;0.00;0.00;;;30.40;57.10;;;;;;5053641;28;20181;-70
2023/09/06 12:35:09;;;;;;;0.70;0.38;;;30.40;57.20;;;;;;5053481;28;20182;-70
2023/09/06 12:37:36;;;;;;;0.15;0.05;;;30.50;57.00;;;;;;5053312;28;20668;-70
2023/09/06 12:40:15;;;;;;;0.00;0.00;;;30.50;57.80;;;;;;5053411;28;20641;-71
2023/09/06 12:42:45;;;;;;;0.00;0.00;;;30.60;57.30;;;;;;5052175;28;20181;-70
2023/09/06 12:45:28;;;;;;;0.00;0.00;;;30.60;57.20;;;;;;5053183;28;20185;-70
2023/09/06 12:47:55;;;;;;;0.00;0.00;;;30.70;57.00;;;;;;5053157;28;20173;-68
2023/09/06 12:50:21;;;;;;;0.00;0.00;;;30.80;56.70;;;;;;5053160;28;20178;-68
2023/09/06 12:52:47;;;;;;;0.00;0.00;;;30.80;56.50;;;;;;5053235;28;20180;-68
2023/09/06 12:55:12;;;;;;;0.08;0.08;;;30.80;56.50;;;;;;5053009;28;20173;-68